createdAt,value
2022-09-21T00:01:28.811Z,8.39
2022-09-21T00:04:00.150Z,8.41
2022-09-21T00:06:30.686Z,8.40
2022-09-21T00:08:58.468Z,8.40
2022-09-21T00:11:28.884Z,8.45
2022-09-21T00:14:04.468Z,8.44
2022-09-21T00:16:32.207Z,8.43
2022-09-21T00:19:00.653Z,8.37
2022-09-21T00:21:28.951Z,8.45
2022-09-21T00:23:56.082Z,8.42
2022-09-21T00:26:26.710Z,8.45
2022-09-21T00:28:56.208Z,8.43
2022-09-21T00:31:24.303Z,8.43
2022-09-21T00:33:51.841Z,8.40
2022-09-21T00:36:22.128Z,8.43
2022-09-21T00:38:58.980Z,8.43
2022-09-21T00:41:27.621Z,8.44
2022-09-21T00:44:25.493Z,8.43
2022-09-21T00:46:58.436Z,8.44
2022-09-21T00:49:27.342Z,8.39
2022-09-21T00:51:56.387Z,8.47
2022-09-21T00:54:33.494Z,8.49
2022-09-21T00:57:02.899Z,8.51
2022-09-21T00:59:32.786Z,8.55
2022-09-21T01:02:00.758Z,8.57
2022-09-21T01:04:28.416Z,8.60
2022-09-21T01:06:58.062Z,8.62
2022-09-21T01:09:25.926Z,8.63
2022-09-21T01:12:33.783Z,8.64
2022-09-21T01:15:21.670Z,8.62
2022-09-21T01:18:42.163Z,8.64
2022-09-21T01:21:23.793Z,8.57
2022-09-21T01:24:21.643Z,8.58
2022-09-21T01:27:13.408Z,8.58
2022-09-21T01:29:52.273Z,8.58
2022-09-21T01:32:40.954Z,8.54
2022-09-21T01:35:57.723Z,8.53
2022-09-21T01:38:35.638Z,8.52
2022-09-21T01:41:06.885Z,8.55
2022-09-21T01:43:46.342Z,8.50
2022-09-21T01:46:18.889Z,8.54
2022-09-21T01:48:50.751Z,8.54
2022-09-21T01:51:20.661Z,8.62
2022-09-21T01:54:05.416Z,8.62
2022-09-21T01:56:42.788Z,8.65
2022-09-21T01:59:30.944Z,8.64
2022-09-21T02:02:09.500Z,8.69
2022-09-21T02:04:37.394Z,8.70
2022-09-21T02:07:04.749Z,8.74
2022-09-21T02:09:34.059Z,8.75
2022-09-21T02:12:02.214Z,8.77
2022-09-21T02:14:30.086Z,8.81
2022-09-21T02:17:47.066Z,8.87
2022-09-21T02:20:36.533Z,8.81
2022-09-21T02:23:26.713Z,8.82
2022-09-21T02:26:03.625Z,8.81
2022-09-21T02:28:38.398Z,8.79
2022-09-21T02:31:34.519Z,8.75
2022-09-21T02:34:20.886Z,8.69
2022-09-21T02:37:06.996Z,8.69
2022-09-21T02:40:00.458Z,8.63
2022-09-21T02:42:37.783Z,8.62
2022-09-21T02:45:15.585Z,8.64
2022-09-21T02:48:09.560Z,8.63
2022-09-21T02:50:44.762Z,8.61
2022-09-21T02:53:17.250Z,8.64
2022-09-21T02:55:46.863Z,8.68
2022-09-21T02:58:16.742Z,8.63
2022-09-21T03:00:44.428Z,8.63
2022-09-21T03:03:23.390Z,8.60
2022-09-21T03:05:54.671Z,8.60
2022-09-21T03:08:22.402Z,8.61
2022-09-21T03:10:50.770Z,8.65
2022-09-21T03:13:19.019Z,8.65
2022-09-21T03:15:47.154Z,8.59
2022-09-21T03:18:14.142Z,8.65
2022-09-21T03:20:48.354Z,8.63
2022-09-21T03:23:15.457Z,8.63
2022-09-21T03:25:45.867Z,8.64
2022-09-21T03:28:14.422Z,8.64
2022-09-21T03:30:42.180Z,8.65
2022-09-21T03:33:10.019Z,8.67
2022-09-21T03:35:37.419Z,8.66
2022-09-21T03:38:04.398Z,8.68
2022-09-21T03:40:32.063Z,8.63
2022-09-21T03:42:59.240Z,8.67
2022-09-21T03:45:29.289Z,8.68
2022-09-21T03:48:01.854Z,8.69
2022-09-21T03:50:30.369Z,8.68
2022-09-21T03:52:57.649Z,8.72
2022-09-21T03:55:25.750Z,8.76
2022-09-21T03:57:53.594Z,8.80
2022-09-21T04:00:21.428Z,8.81
2022-09-21T04:02:49.951Z,8.83
2022-09-21T04:05:17.873Z,8.81
2022-09-21T04:07:48.373Z,8.84
2022-09-21T04:10:22.318Z,8.84
2022-09-21T04:12:49.205Z,8.84
2022-09-21T04:15:21.631Z,8.80
2022-09-21T04:17:52.128Z,8.81
2022-09-21T04:20:20.773Z,8.79
2022-09-21T04:22:47.885Z,8.76
2022-09-21T04:25:15.873Z,8.75
2022-09-21T04:27:43.203Z,8.74
2022-09-21T04:30:16.215Z,8.75
2022-09-21T04:32:43.955Z,8.72
2022-09-21T04:35:11.460Z,8.70
2022-09-21T04:37:38.732Z,8.75
2022-09-21T04:40:07.736Z,8.75
2022-09-21T04:42:35.362Z,8.76
2022-09-21T04:45:02.575Z,8.75
2022-09-21T04:47:31.502Z,8.76
2022-09-21T04:49:58.557Z,8.76
2022-09-21T04:52:25.890Z,8.74
2022-09-21T04:54:53.198Z,8.75
2022-09-21T04:57:20.570Z,8.74
2022-09-21T04:59:47.658Z,8.74
2022-09-21T05:02:14.671Z,8.69
2022-09-21T05:04:41.673Z,8.67
2022-09-21T05:07:08.773Z,8.65
2022-09-21T05:09:54.216Z,8.65
2022-09-21T05:12:21.198Z,8.55
2022-09-21T05:14:48.462Z,8.56
2022-09-21T05:17:15.464Z,8.55
2022-09-21T05:19:42.463Z,8.53
2022-09-21T05:22:09.500Z,8.56
2022-09-21T05:24:36.453Z,8.55
2022-09-21T05:27:03.670Z,8.56
2022-09-21T05:29:31.085Z,8.51
2022-09-21T05:32:32.104Z,8.59
2022-09-21T05:35:11.155Z,8.59
2022-09-21T05:37:57.703Z,8.62
2022-09-21T05:40:25.749Z,8.60
2022-09-21T05:42:53.143Z,8.67
2022-09-21T05:45:21.927Z,8.79
2022-09-21T05:48:16.570Z,8.83
2022-09-21T05:50:53.652Z,8.95
2022-09-21T05:53:51.244Z,9.02
2022-09-21T05:56:54.032Z,9.06
2022-09-21T05:59:47.020Z,9.14
2022-09-21T06:02:39.808Z,9.21
2022-09-21T06:05:12.493Z,9.26
2022-09-21T06:07:39.623Z,9.29
2022-09-21T06:10:08.059Z,9.40
2022-09-21T06:12:35.167Z,9.44
2022-09-21T06:15:02.397Z,9.57
2022-09-21T06:17:29.540Z,9.63
2022-09-21T06:19:56.643Z,9.65
2022-09-21T06:22:23.951Z,9.80
2022-09-21T06:24:50.915Z,9.87
2022-09-21T06:27:18.059Z,9.88
2022-09-21T06:29:46.469Z,9.98
2022-09-21T06:32:13.463Z,10.03
2022-09-21T06:34:40.447Z,10.06
2022-09-21T06:37:07.390Z,10.04
2022-09-21T06:39:34.424Z,10.13
2022-09-21T06:42:01.416Z,10.19
2022-09-21T06:44:30.005Z,10.24
2022-09-21T06:46:57.008Z,10.24
2022-09-21T06:49:24.141Z,10.28
2022-09-21T06:51:51.075Z,10.28
2022-09-21T06:54:18.554Z,10.33
2022-09-21T06:56:46.619Z,10.34
2022-09-21T06:59:13.855Z,10.43
2022-09-21T07:01:41.058Z,10.52
2022-09-21T07:04:09.366Z,10.51
2022-09-21T07:06:36.706Z,10.49
2022-09-21T07:11:51.029Z,10.51
2022-09-21T07:14:18.992Z,10.53
2022-09-21T07:16:46.479Z,10.49
2022-09-21T07:19:13.648Z,10.59
2022-09-21T07:21:40.825Z,10.57
2022-09-21T07:24:11.901Z,10.63
2022-09-21T07:26:40.062Z,10.68
2022-09-21T07:29:07.183Z,10.69
2022-09-21T07:31:34.351Z,10.76
2022-09-21T07:34:01.665Z,10.75
2022-09-21T07:36:28.681Z,10.84
2022-09-21T07:38:55.699Z,10.94
2022-09-21T07:41:23.459Z,10.94
2022-09-21T07:43:50.411Z,11.00
2022-09-21T07:46:17.420Z,11.06
2022-09-21T07:48:44.369Z,11.09
2022-09-21T07:51:14.693Z,11.16
2022-09-21T07:53:46.885Z,11.22
2022-09-21T07:56:16.857Z,11.29
2022-09-21T07:59:04.908Z,11.35
2022-09-21T08:01:38.958Z,11.44
2022-09-21T08:04:11.262Z,11.48
2022-09-21T08:06:42.210Z,11.54
2022-09-21T08:09:10.218Z,11.57
2022-09-21T08:11:37.687Z,11.68
2022-09-21T08:14:05.264Z,11.81
2022-09-21T08:16:33.997Z,11.92
2022-09-21T08:19:02.246Z,12.03
2022-09-21T08:21:30.668Z,12.09
2022-09-21T08:23:57.795Z,12.24
2022-09-21T08:26:24.840Z,12.28
2022-09-21T08:28:53.246Z,12.41
2022-09-21T08:31:22.391Z,12.42
2022-09-21T08:33:50.080Z,12.49
2022-09-21T08:36:18.494Z,12.56
2022-09-21T08:38:45.881Z,12.65
2022-09-21T08:41:20.118Z,12.78
2022-09-21T08:44:07.857Z,12.93
2022-09-21T08:46:37.238Z,13.05
2022-09-21T08:49:11.696Z,13.13
2022-09-21T08:51:50.037Z,13.15
2022-09-21T08:54:37.923Z,13.24
2022-09-21T08:57:06.251Z,13.36
2022-09-21T08:59:35.201Z,13.45
2022-09-21T09:02:47.863Z,13.57
2022-09-21T09:05:55.797Z,13.68
2022-09-21T09:08:44.757Z,13.84
2022-09-21T09:11:41.641Z,13.93
2022-09-21T09:15:15.968Z,13.99
2022-09-21T09:18:04.505Z,14.08
2022-09-21T09:20:41.658Z,14.09
2022-09-21T09:23:27.176Z,14.21
2022-09-21T09:26:03.852Z,14.32
2022-09-21T09:28:42.692Z,14.45
2022-09-21T09:31:23.530Z,14.58
2022-09-21T09:34:11.913Z,14.73
2022-09-21T09:37:00.542Z,14.86
2022-09-21T09:39:31.039Z,14.93
2022-09-21T09:42:28.445Z,14.99
2022-09-21T09:45:15.178Z,15.04
2022-09-21T09:48:13.425Z,15.09
2022-09-21T09:50:41.549Z,15.15
2022-09-21T09:53:25.435Z,15.23
2022-09-21T09:55:58.667Z,15.23
2022-09-21T09:58:57.549Z,15.18
2022-09-21T10:01:46.868Z,15.11
2022-09-21T10:04:20.176Z,15.05
2022-09-21T10:06:47.720Z,15.05
2022-09-21T10:09:32.443Z,14.97
2022-09-21T10:12:17.853Z,14.94
2022-09-21T10:14:54.744Z,14.95
2022-09-21T10:17:24.008Z,14.98
2022-09-21T10:20:04.153Z,15.02
2022-09-21T10:22:31.256Z,15.06
2022-09-21T10:25:06.036Z,15.11
2022-09-21T10:27:37.178Z,15.23
2022-09-21T10:30:04.849Z,15.34
2022-09-21T10:32:32.318Z,15.52
2022-09-21T10:35:07.669Z,15.59
2022-09-21T10:37:41.488Z,15.58
2022-09-21T10:40:20.746Z,15.53
2022-09-21T10:42:59.811Z,15.46
2022-09-21T10:45:37.195Z,15.43
2022-09-21T10:48:17.651Z,15.41
2022-09-21T10:50:51.120Z,15.40
2022-09-21T10:53:29.370Z,15.46
2022-09-21T10:56:16.624Z,15.59
2022-09-21T10:59:23.110Z,15.75
2022-09-21T11:01:54.006Z,15.84
2022-09-21T11:04:46.700Z,15.92
2022-09-21T11:07:16.515Z,15.92
2022-09-21T11:10:10.537Z,15.97
2022-09-21T11:12:57.740Z,16.02
2022-09-21T11:15:38.036Z,16.09
2022-09-21T11:18:15.040Z,16.10
2022-09-21T11:21:06.174Z,16.08
2022-09-21T11:24:02.740Z,16.15
2022-09-21T11:26:44.815Z,16.21
2022-09-21T11:29:28.052Z,16.24
2022-09-21T11:32:26.335Z,16.34
2022-09-21T11:35:45.261Z,16.39
2022-09-21T11:38:25.893Z,16.37
2022-09-21T11:41:18.573Z,16.45
2022-09-21T11:44:16.521Z,16.51
2022-09-21T11:47:02.996Z,16.54
2022-09-21T11:50:29.638Z,16.60
2022-09-21T11:53:29.088Z,16.68
2022-09-21T11:56:11.613Z,16.83
2022-09-21T11:59:33.116Z,16.93
2022-09-21T12:02:37.801Z,16.98
2022-09-21T12:05:45.924Z,16.98
2022-09-21T12:08:45.164Z,16.95
2022-09-21T12:11:24.391Z,16.95
2022-09-21T12:14:19.077Z,16.93
2022-09-21T12:17:21.240Z,16.91
2022-09-21T12:20:24.897Z,16.96
2022-09-21T12:23:11.240Z,17.06
2022-09-21T12:25:45.729Z,17.20
2022-09-21T12:28:34.894Z,17.34
2022-09-21T12:31:12.036Z,17.50
2022-09-21T12:34:01.324Z,17.64
2022-09-21T12:37:15.483Z,17.76
2022-09-21T12:40:08.043Z,17.85
2022-09-21T12:42:55.869Z,18.07
2022-09-21T12:45:35.725Z,18.40
2022-09-21T12:48:29.448Z,18.81
2022-09-21T12:51:06.426Z,19.17
2022-09-21T12:53:40.397Z,19.34
2022-09-21T12:56:26.623Z,19.28
2022-09-21T12:59:05.634Z,19.15
2022-09-21T13:01:57.192Z,18.96
2022-09-21T13:05:18.587Z,18.66
2022-09-21T13:08:07.244Z,18.42
2022-09-21T13:10:44.585Z,18.28
2022-09-21T13:13:53.161Z,18.01
2022-09-21T13:16:32.826Z,17.91
2022-09-21T13:19:07.389Z,17.88
2022-09-21T13:21:34.519Z,18.10
2022-09-21T13:24:07.914Z,18.43
2022-09-21T13:27:06.683Z,18.92
2022-09-21T13:29:37.208Z,19.39
2022-09-21T13:32:14.286Z,19.93
2022-09-21T13:34:46.954Z,20.42
2022-09-21T13:37:20.003Z,20.78
2022-09-21T13:40:02.408Z,21.15
2022-09-21T13:42:32.955Z,21.51
2022-09-21T13:45:17.852Z,21.94
2022-09-21T13:47:51.303Z,22.39
2022-09-21T13:50:58.094Z,22.90
2022-09-21T13:53:33.834Z,23.32
2022-09-21T13:56:08.967Z,23.63
2022-09-21T13:58:53.698Z,23.96
2022-09-21T14:01:45.625Z,24.35
2022-09-21T14:04:25.901Z,24.85
2022-09-21T14:06:55.210Z,25.39
2022-09-21T14:09:31.533Z,25.86
2022-09-21T14:12:06.427Z,26.07
2022-09-21T14:14:39.885Z,26.17
2022-09-21T14:17:38.278Z,26.41
2022-09-21T14:20:37.140Z,26.74
2022-09-21T14:23:29.149Z,27.07
2022-09-21T14:25:58.656Z,27.18
2022-09-21T14:28:36.377Z,27.32
2022-09-21T14:31:16.496Z,27.30
2022-09-21T14:33:49.317Z,27.04
2022-09-21T14:36:23.635Z,26.44
2022-09-21T14:39:00.450Z,25.78
2022-09-21T14:41:41.243Z,25.03
2022-09-21T14:44:18.828Z,24.33
2022-09-21T14:47:05.970Z,23.57
2022-09-21T14:49:42.096Z,22.88
2022-09-21T14:52:49.575Z,21.96
2022-09-21T14:55:55.170Z,21.18
2022-09-21T14:59:16.471Z,20.48
2022-09-21T15:02:24.021Z,19.83
2022-09-21T15:05:25.079Z,19.24
2022-09-21T15:08:48.085Z,18.78
2022-09-21T15:11:29.228Z,18.38
2022-09-21T15:14:23.884Z,18.00
2022-09-21T15:16:52.546Z,17.74
2022-09-21T15:19:23.702Z,17.50
2022-09-21T15:22:17.941Z,17.21
2022-09-21T15:24:55.541Z,16.98
2022-09-21T15:27:33.494Z,16.73
2022-09-21T15:30:05.304Z,16.46
2022-09-21T15:32:44.720Z,16.16
2022-09-21T15:35:20.420Z,15.98
2022-09-21T15:37:48.173Z,15.78
2022-09-21T15:40:31.998Z,15.56
2022-09-21T15:43:16.855Z,15.40
2022-09-21T15:46:03.036Z,15.21
2022-09-21T15:48:34.985Z,15.09
2022-09-21T15:51:16.946Z,14.95
2022-09-21T15:53:53.313Z,14.80
2022-09-21T15:56:29.568Z,14.68
2022-09-21T15:59:11.789Z,14.60
2022-09-21T16:01:47.670Z,14.47
2022-09-21T16:04:27.280Z,14.36
2022-09-21T16:07:30.328Z,14.16
2022-09-21T16:09:57.908Z,14.09
2022-09-21T16:12:43.617Z,13.94
2022-09-21T16:15:31.955Z,13.80
2022-09-21T16:18:01.957Z,13.67
2022-09-21T16:20:44.469Z,13.60
2022-09-21T16:23:23.290Z,13.48
2022-09-21T16:25:58.518Z,13.42
2022-09-21T16:28:41.423Z,13.28
2022-09-21T16:31:30.210Z,13.20
2022-09-21T16:34:24.803Z,13.08
2022-09-21T16:36:53.970Z,12.98
2022-09-21T16:39:21.770Z,12.92
2022-09-21T16:42:02.106Z,12.84
2022-09-21T16:44:34.669Z,12.70
2022-09-21T16:47:04.076Z,12.67
2022-09-21T16:49:34.896Z,12.57
2022-09-21T16:52:02.685Z,12.45
2022-09-21T16:54:30.742Z,12.33
2022-09-21T16:57:00.920Z,12.24
2022-09-21T16:59:28.761Z,12.05
2022-09-21T17:01:58.284Z,11.98
2022-09-21T17:04:31.729Z,11.92
2022-09-21T17:06:59.151Z,11.84
2022-09-21T17:09:33.969Z,11.77
2022-09-21T17:12:02.987Z,11.67
2022-09-21T17:14:40.898Z,11.61
2022-09-21T17:17:24.991Z,11.52
2022-09-21T17:19:53.897Z,11.49
2022-09-21T17:22:21.853Z,11.45
2022-09-21T17:24:52.310Z,11.41
2022-09-21T17:27:26.627Z,11.31
2022-09-21T17:29:55.416Z,11.26
2022-09-21T17:32:24.603Z,11.12
2022-09-21T17:35:13.799Z,11.05
2022-09-21T17:37:40.826Z,11.00
2022-09-21T17:40:11.151Z,10.94
2022-09-21T17:42:48.730Z,10.82
2022-09-21T17:45:50.476Z,10.78
2022-09-21T17:48:22.528Z,10.69
2022-09-21T17:50:50.498Z,10.66
2022-09-21T17:53:36.497Z,10.62
2022-09-21T17:56:22.129Z,10.55
2022-09-21T17:58:58.257Z,10.50
2022-09-21T18:01:38.866Z,10.45
2022-09-21T18:04:08.256Z,10.42
2022-09-21T18:06:35.672Z,10.38
2022-09-21T18:09:03.699Z,10.35
2022-09-21T18:11:45.253Z,10.32
2022-09-21T18:15:03.820Z,10.26
2022-09-21T18:18:03.390Z,10.20
2022-09-21T18:20:54.359Z,10.13
2022-09-21T18:23:48.420Z,10.08
2022-09-21T18:26:17.006Z,10.03
2022-09-21T18:28:57.371Z,10.01
2022-09-21T18:31:52.625Z,9.96
2022-09-21T18:34:20.155Z,9.95
2022-09-21T18:37:12.676Z,9.91
2022-09-21T18:40:21.809Z,9.86
2022-09-21T18:43:30.649Z,9.84
2022-09-21T18:46:06.507Z,9.82
2022-09-21T18:48:50.979Z,9.79
2022-09-21T18:52:01.413Z,9.77
2022-09-21T18:54:28.852Z,9.76
2022-09-21T18:56:56.445Z,9.76
2022-09-21T18:59:25.713Z,9.73
2022-09-21T19:01:55.744Z,9.76
2022-09-21T19:04:23.106Z,9.76
2022-09-21T19:07:28.415Z,9.68
2022-09-21T19:10:11.248Z,9.74
2022-09-21T19:12:47.581Z,9.75
2022-09-21T19:15:18.072Z,9.75
2022-09-21T19:18:26.865Z,9.72
2022-09-21T19:21:40.624Z,9.72
2022-09-21T19:24:39.211Z,9.74
2022-09-21T19:27:40.036Z,9.74
2022-09-21T19:30:14.260Z,9.77
2022-09-21T19:32:47.076Z,9.78
2022-09-21T19:35:17.091Z,9.77
2022-09-21T19:37:44.519Z,9.74
2022-09-21T19:40:12.678Z,9.69
2022-09-21T19:43:10.941Z,9.70
2022-09-21T19:46:05.557Z,9.63
2022-09-21T19:48:43.114Z,9.61
2022-09-21T19:51:38.551Z,9.58
2022-09-21T19:54:35.452Z,9.52
2022-09-21T19:57:31.701Z,9.49
2022-09-21T20:00:00.075Z,9.43
2022-09-21T20:02:32.573Z,9.43
2022-09-21T20:05:23.703Z,9.41
2022-09-21T20:08:04.564Z,9.40
2022-09-21T20:10:54.984Z,9.39
2022-09-21T20:13:31.115Z,9.38
2022-09-21T20:16:26.173Z,9.34
2022-09-21T20:19:23.490Z,9.29
2022-09-21T20:22:00.400Z,9.27
2022-09-21T20:24:52.099Z,9.25
2022-09-21T20:27:29.914Z,9.26
2022-09-21T20:29:56.948Z,9.26
2022-09-21T20:32:24.319Z,9.29
2022-09-21T20:34:51.678Z,9.33
2022-09-21T20:37:19.267Z,9.32
2022-09-21T20:39:46.544Z,9.34
2022-09-21T20:42:24.806Z,9.35
2022-09-21T20:44:52.593Z,9.38
2022-09-21T20:47:20.528Z,9.35
2022-09-21T20:49:48.496Z,9.33
2022-09-21T20:52:16.918Z,9.38
2022-09-21T20:54:49.105Z,9.36
2022-09-21T20:57:18.539Z,9.29
2022-09-21T20:59:45.583Z,9.31
2022-09-21T21:02:14.359Z,9.35
2022-09-21T21:04:41.484Z,9.34
2022-09-21T21:07:08.961Z,9.27
2022-09-21T21:09:37.396Z,9.30
2022-09-21T21:12:04.950Z,9.25
2022-09-21T21:14:31.832Z,9.16
2022-09-21T21:16:58.923Z,9.13
2022-09-21T21:19:26.232Z,9.12
2022-09-21T21:21:53.281Z,9.12
2022-09-21T21:24:38.551Z,9.12
2022-09-21T21:27:06.074Z,9.09
2022-09-21T21:29:33.568Z,9.10
2022-09-21T21:32:01.044Z,9.08
2022-09-21T21:34:28.305Z,9.10
2022-09-21T21:36:55.905Z,9.09
2022-09-21T21:39:23.017Z,9.11
2022-09-21T21:41:49.924Z,9.13
2022-09-21T21:44:16.823Z,9.13
2022-09-21T21:46:44.004Z,9.19
2022-09-21T21:49:11.352Z,9.27
2022-09-21T21:51:38.309Z,9.38
2022-09-21T21:54:05.739Z,9.45
2022-09-21T21:56:32.816Z,9.51
2022-09-21T21:59:00.171Z,9.53
2022-09-21T22:01:29.927Z,9.57
2022-09-21T22:04:00.336Z,9.67
2022-09-21T22:06:30.107Z,9.70
2022-09-21T22:08:57.880Z,9.71
2022-09-21T22:11:27.108Z,9.75
2022-09-21T22:13:55.305Z,9.80
2022-09-21T22:16:25.457Z,9.77
2022-09-21T22:18:53.567Z,9.87
2022-09-21T22:21:22.868Z,9.91
2022-09-21T22:23:54.404Z,9.93
2022-09-21T22:26:22.575Z,9.94
2022-09-21T22:28:54.461Z,9.94
2022-09-21T22:31:26.610Z,9.96
2022-09-21T22:33:55.646Z,9.94
2022-09-21T22:36:29.341Z,9.97
2022-09-21T22:38:57.489Z,9.98
2022-09-21T22:41:28.819Z,10.00
2022-09-21T22:43:58.149Z,10.00
2022-09-21T22:46:27.019Z,10.02
2022-09-21T22:48:53.979Z,10.01
2022-09-21T22:51:22.015Z,10.02
2022-09-21T22:53:50.681Z,10.03
2022-09-21T22:56:21.473Z,9.98
2022-09-21T22:58:52.388Z,10.01
2022-09-21T23:01:35.633Z,10.00
2022-09-21T23:04:07.378Z,10.01
2022-09-21T23:06:37.987Z,10.02
2022-09-21T23:09:12.060Z,10.04
2022-09-21T23:11:43.379Z,10.04
2022-09-21T23:14:12.325Z,10.04
2022-09-21T23:16:39.341Z,10.00
2022-09-21T23:19:07.217Z,10.04
2022-09-21T23:21:34.104Z,10.01
2022-09-21T23:24:02.809Z,9.99
2022-09-21T23:26:32.194Z,9.97
2022-09-21T23:29:08.891Z,9.92
2022-09-21T23:31:36.037Z,9.91
2022-09-21T23:34:12.556Z,9.88
2022-09-21T23:36:41.065Z,9.87
2022-09-21T23:39:11.669Z,9.86
2022-09-21T23:41:39.275Z,9.87
2022-09-21T23:44:06.411Z,9.86
2022-09-21T23:46:36.646Z,9.88
2022-09-21T23:49:04.114Z,9.90
2022-09-21T23:51:31.332Z,9.92
2022-09-21T23:54:00.131Z,9.92
2022-09-21T23:56:28.504Z,9.94
2022-09-21T23:58:56.140Z,9.97
